createdAt,value
2022-11-02T00:02:02.152Z,101031.91
2022-11-02T00:04:30.265Z,101042.13
2022-11-02T00:06:59.645Z,101036.06
2022-11-02T00:09:27.752Z,101028.94
2022-11-02T00:11:55.708Z,101036.50
2022-11-02T00:14:23.578Z,101022.84
2022-11-02T00:16:52.686Z,101021.09
2022-11-02T00:19:21.202Z,101021.97
2022-11-02T00:21:52.697Z,101020.34
2022-11-02T00:24:22.377Z,101027.91
2022-11-02T00:26:50.419Z,101013.53
2022-11-02T00:29:18.366Z,101022.59
2022-11-02T00:31:49.157Z,101015.75
2022-11-02T00:34:21.299Z,101020.66
2022-11-02T00:36:55.344Z,101022.16
2022-11-02T00:39:25.202Z,101023.78
2022-11-02T00:41:54.670Z,100998.16
2022-11-02T00:44:28.466Z,101010.75
2022-11-02T00:46:56.901Z,101010.75
2022-11-02T00:49:26.092Z,101013.13
2022-11-02T00:51:54.052Z,100993.28
2022-11-02T00:54:25.918Z,100998.03
2022-11-02T00:56:58.175Z,101002.16
2022-11-02T00:59:26.397Z,100996.84
2022-11-02T01:01:57.185Z,100998.34
2022-11-02T01:04:25.281Z,100996.13
2022-11-02T01:06:53.213Z,100999.25
2022-11-02T01:09:21.688Z,100998.22
2022-11-02T01:11:49.767Z,100987.09
2022-11-02T01:14:21.689Z,100995.88
2022-11-02T01:16:49.926Z,100989.34
2022-11-02T01:19:19.759Z,100986.44
2022-11-02T01:21:47.625Z,100990.44
2022-11-02T01:24:15.339Z,100987.16
2022-11-02T01:26:43.385Z,100997.09
2022-11-02T01:29:12.867Z,100985.94
2022-11-02T01:31:42.251Z,100983.84
2022-11-02T01:34:11.671Z,100976.41
2022-11-02T01:36:39.506Z,100971.41
2022-11-02T01:39:07.960Z,100974.91
2022-11-02T01:41:36.137Z,100967.47
2022-11-02T01:44:05.361Z,100970.78
2022-11-02T01:46:39.924Z,100926.47
2022-11-02T01:49:13.548Z,100959.66
2022-11-02T01:51:46.504Z,100955.31
2022-11-02T01:54:17.794Z,100951.50
2022-11-02T01:56:50.416Z,100945.28
2022-11-02T01:59:22.199Z,100937.59
2022-11-02T02:01:50.433Z,100942.91
2022-11-02T02:04:20.297Z,100950.34
2022-11-02T02:06:50.527Z,100944.66
2022-11-02T02:09:21.936Z,100947.47
2022-11-02T02:11:53.017Z,100945.66
2022-11-02T02:14:22.862Z,100945.78
2022-11-02T02:17:03.835Z,100949.00
2022-11-02T02:19:49.451Z,100955.22
2022-11-02T02:22:37.407Z,100948.69
2022-11-02T02:25:24.958Z,100944.78
2022-11-02T02:28:08.650Z,100939.28
2022-11-02T02:30:44.661Z,100938.81
2022-11-02T02:33:18.683Z,100936.69
2022-11-02T02:35:55.104Z,100923.31
2022-11-02T02:38:30.849Z,100917.13
2022-11-02T02:41:04.435Z,100928.63
2022-11-02T02:43:41.424Z,100914.97
2022-11-02T02:46:11.629Z,100898.41
2022-11-02T02:48:42.590Z,100904.53
2022-11-02T02:51:13.527Z,100914.94
2022-11-02T02:53:44.608Z,100907.50
2022-11-02T02:56:17.677Z,100921.53
2022-11-02T02:58:57.113Z,100913.97
2022-11-02T03:01:27.157Z,100903.72
2022-11-02T03:03:55.922Z,100900.59
2022-11-02T03:06:27.567Z,100916.91
2022-11-02T03:09:04.660Z,100916.31
2022-11-02T03:11:34.664Z,100904.28
2022-11-02T03:14:13.765Z,100918.75
2022-11-02T03:17:00.961Z,100913.16
2022-11-02T03:19:41.529Z,100913.09
2022-11-02T03:22:16.443Z,100928.72
2022-11-02T03:24:52.534Z,100923.66
2022-11-02T03:27:24.470Z,100919.00
2022-11-02T03:30:05.407Z,100928.03
2022-11-02T03:32:38.307Z,100922.03
2022-11-02T03:35:13.080Z,100917.25
2022-11-02T03:37:46.391Z,100918.75
2022-11-02T03:40:19.200Z,100927.34
2022-11-02T03:42:50.097Z,100917.25
2022-11-02T03:45:23.849Z,100916.78
2022-11-02T03:47:55.455Z,100913.22
2022-11-02T03:50:28.075Z,100923.06
2022-11-02T03:53:00.070Z,100914.16
2022-11-02T03:55:32.711Z,100917.63
2022-11-02T03:58:00.958Z,100914.72
2022-11-02T04:00:36.038Z,100911.16
2022-11-02T04:03:09.036Z,100897.41
2022-11-02T04:05:41.955Z,100917.59
2022-11-02T04:08:41.606Z,100875.97
2022-11-02T04:11:28.800Z,100926.19
2022-11-02T04:14:20.183Z,100927.03
2022-11-02T04:16:49.530Z,100926.91
2022-11-02T04:19:29.402Z,100916.56
2022-11-02T04:22:21.065Z,100918.78
2022-11-02T04:25:11.190Z,100916.47
2022-11-02T04:27:40.298Z,100928.94
2022-11-02T04:30:11.037Z,100933.09
2022-11-02T04:32:58.422Z,100937.88
2022-11-02T04:35:29.228Z,100936.84
2022-11-02T04:38:15.727Z,100943.38
2022-11-02T04:40:45.025Z,100934.03
2022-11-02T04:43:13.214Z,100941.59
2022-11-02T04:45:41.332Z,100940.56
2022-11-02T04:48:11.297Z,100938.66
2022-11-02T04:50:39.712Z,100931.69
2022-11-02T04:53:08.784Z,100935.72
2022-11-02T04:55:39.032Z,100943.75
2022-11-02T04:58:08.223Z,100946.00
2022-11-02T05:00:40.927Z,100944.97
2022-11-02T05:03:12.966Z,100943.03
2022-11-02T05:05:43.676Z,100936.97
2022-11-02T05:08:13.106Z,100927.66
2022-11-02T05:10:41.345Z,100940.25
2022-11-02T05:13:12.758Z,100939.94
2022-11-02T05:15:41.681Z,100942.06
2022-11-02T05:18:14.875Z,100936.72
2022-11-02T05:20:51.464Z,100933.78
2022-11-02T05:23:22.681Z,100939.53
2022-11-02T05:25:57.603Z,100935.84
2022-11-02T05:28:27.151Z,100931.41
2022-11-02T05:30:56.314Z,100936.03
2022-11-02T05:33:32.661Z,100903.28
2022-11-02T05:36:06.621Z,100930.88
2022-11-02T05:38:37.010Z,100944.50
2022-11-02T05:41:05.963Z,100946.84
2022-11-02T05:43:37.226Z,100947.63
2022-11-02T05:46:07.329Z,100928.34
2022-11-02T05:48:37.578Z,100943.63
2022-11-02T05:51:06.120Z,100954.16
2022-11-02T05:53:38.269Z,100958.88
2022-11-02T05:56:08.436Z,100959.13
2022-11-02T05:58:36.572Z,100946.19
2022-11-02T06:01:09.769Z,100955.25
2022-11-02T06:03:40.308Z,100954.28
2022-11-02T06:06:12.288Z,100957.97
2022-11-02T06:08:40.909Z,100964.22
2022-11-02T06:11:11.252Z,100968.81
2022-11-02T06:13:39.548Z,100949.09
2022-11-02T06:16:10.300Z,100966.75
2022-11-02T06:18:54.413Z,100975.84
2022-11-02T06:21:22.253Z,100974.59
2022-11-02T06:23:50.738Z,100977.13
2022-11-02T06:26:21.919Z,100982.91
2022-11-02T06:28:50.089Z,100982.16
2022-11-02T06:31:20.545Z,100982.03
2022-11-02T06:34:02.636Z,100978.47
2022-11-02T06:36:30.478Z,100992.69
2022-11-02T06:38:58.263Z,100998.63
2022-11-02T06:41:26.120Z,101002.03
2022-11-02T06:43:54.238Z,101001.16
2022-11-02T06:46:22.234Z,101013.91
2022-11-02T06:48:51.363Z,101012.13
2022-11-02T06:51:23.719Z,101014.66
2022-11-02T06:53:52.256Z,101017.16
2022-11-02T06:56:21.387Z,101025.78
2022-11-02T06:58:49.697Z,101026.25
2022-11-02T07:01:18.118Z,101021.47
2022-11-02T07:03:46.314Z,101018.34
2022-11-02T07:06:16.716Z,101025.16
2022-11-02T07:08:45.960Z,101032.16
2022-11-02T07:11:17.289Z,101032.31
2022-11-02T07:13:46.177Z,101035.28
2022-11-02T07:16:14.698Z,101047.00
2022-11-02T07:18:42.736Z,101045.09
2022-11-02T07:21:11.969Z,101049.66
2022-11-02T07:23:40.233Z,101058.19
2022-11-02T07:26:09.756Z,101060.97
2022-11-02T07:28:40.457Z,101054.69
2022-11-02T07:31:08.395Z,101040.16
2022-11-02T07:36:18.185Z,101058.78
2022-11-02T07:38:46.622Z,101053.53
2022-11-02T07:41:19.045Z,101057.06
2022-11-02T07:43:46.899Z,101050.53
2022-11-02T07:46:33.592Z,101066.41
2022-11-02T07:49:05.409Z,101066.25
2022-11-02T07:51:33.301Z,101059.75
2022-11-02T07:54:02.898Z,101071.03
2022-11-02T07:56:32.238Z,101031.84
2022-11-02T07:59:00.033Z,101067.50
2022-11-02T08:01:41.360Z,101074.41
2022-11-02T08:04:13.323Z,101071.94
2022-11-02T08:06:41.667Z,101071.00
2022-11-02T08:09:17.320Z,101076.88
2022-11-02T08:11:49.658Z,101070.84
2022-11-02T08:14:18.344Z,101074.59
2022-11-02T08:16:48.147Z,101089.28
2022-11-02T08:19:23.711Z,101085.06
2022-11-02T08:22:00.818Z,101094.69
2022-11-02T08:24:28.668Z,101099.91
2022-11-02T08:27:04.113Z,101091.41
2022-11-02T08:29:37.697Z,101095.44
2022-11-02T08:32:09.389Z,101098.59
2022-11-02T08:34:49.411Z,101095.94
2022-11-02T08:37:17.388Z,101104.69
2022-11-02T08:39:45.249Z,101095.22
2022-11-02T08:42:14.686Z,101104.63
2022-11-02T08:44:42.935Z,101104.53
2022-11-02T08:47:19.885Z,101107.13
2022-11-02T08:49:56.809Z,101114.03
2022-11-02T08:52:24.845Z,101119.88
2022-11-02T08:54:58.621Z,101113.09
2022-11-02T08:57:32.486Z,101112.22
2022-11-02T09:00:02.406Z,101118.59
2022-11-02T09:02:30.350Z,101105.00
2022-11-02T09:04:58.267Z,101108.66
2022-11-02T09:07:26.010Z,101107.00
2022-11-02T09:09:53.995Z,101112.59
2022-11-02T09:12:25.114Z,101105.84
2022-11-02T09:14:59.518Z,101108.50
2022-11-02T09:17:30.587Z,101109.41
2022-11-02T09:20:08.952Z,101123.88
2022-11-02T09:22:39.899Z,101121.34
2022-11-02T09:25:12.529Z,101118.94
2022-11-02T09:27:49.392Z,101125.00
2022-11-02T09:30:21.913Z,101125.97
2022-11-02T09:32:59.758Z,101140.44
2022-11-02T09:35:29.097Z,101145.44
2022-11-02T09:37:57.565Z,101153.94
2022-11-02T09:40:37.159Z,101151.41
2022-11-02T09:43:15.427Z,101144.47
2022-11-02T09:48:40.818Z,101150.53
2022-11-02T09:51:11.813Z,101135.97
2022-11-02T09:53:53.423Z,101154.59
2022-11-02T09:56:21.654Z,101156.59
2022-11-02T09:58:56.745Z,101140.25
2022-11-02T10:01:45.023Z,101155.63
2022-11-02T10:04:51.003Z,101157.78
2022-11-02T10:07:35.426Z,101173.16
2022-11-02T10:10:13.130Z,101174.47
2022-11-02T10:12:49.510Z,101164.63
2022-11-02T10:15:21.977Z,101171.44
2022-11-02T10:17:58.091Z,101172.84
2022-11-02T10:20:28.895Z,101176.50
2022-11-02T10:23:03.747Z,101185.25
2022-11-02T10:25:34.288Z,101177.38
2022-11-02T10:28:10.960Z,101176.50
2022-11-02T10:30:45.960Z,101193.31
2022-11-02T10:33:20.670Z,101201.16
2022-11-02T10:36:17.347Z,101190.16
2022-11-02T10:38:59.635Z,101183.22
2022-11-02T10:41:54.459Z,101195.28
2022-11-02T10:44:37.495Z,101200.84
2022-11-02T10:47:17.278Z,101192.50
2022-11-02T10:50:14.097Z,101212.69
2022-11-02T10:52:47.446Z,101208.88
2022-11-02T10:55:23.914Z,101227.38
2022-11-02T10:57:55.718Z,101226.69
2022-11-02T11:00:32.364Z,101220.94
2022-11-02T11:03:09.029Z,101241.34
2022-11-02T11:06:00.337Z,101241.69
2022-11-02T11:08:31.566Z,101245.34
2022-11-02T11:11:29.225Z,101258.34
2022-11-02T11:16:52.415Z,101281.72
2022-11-02T11:22:33.730Z,101262.16
2022-11-02T11:25:27.818Z,101253.34
2022-11-02T11:27:57.553Z,101258.41
2022-11-02T11:33:23.116Z,101265.00
2022-11-02T11:36:00.267Z,101234.41
2022-11-02T11:38:29.479Z,101268.91
2022-11-02T11:41:00.570Z,101272.41
2022-11-02T11:43:30.705Z,101279.50
2022-11-02T11:46:06.532Z,101280.25
2022-11-02T11:48:40.408Z,101277.91
2022-11-02T11:51:41.510Z,101284.91
2022-11-02T11:54:28.081Z,101272.78
2022-11-02T11:56:57.855Z,101273.03
2022-11-02T11:59:30.176Z,101283.88
2022-11-02T12:02:03.750Z,101294.88
2022-11-02T12:04:35.197Z,101275.06
2022-11-02T12:07:37.284Z,101287.38
2022-11-02T12:10:15.930Z,101300.00
2022-11-02T12:13:15.799Z,101297.81
2022-11-02T12:16:07.369Z,101290.59
2022-11-02T12:22:02.209Z,101288.91
2022-11-02T12:25:04.141Z,101298.19
2022-11-02T12:27:48.247Z,101294.25
2022-11-02T12:30:19.974Z,101309.72
2022-11-02T12:33:03.609Z,101305.44
2022-11-02T12:36:06.834Z,101320.31
2022-11-02T12:38:57.549Z,101309.00
2022-11-02T12:41:41.998Z,101328.75
2022-11-02T12:44:36.175Z,101343.59
2022-11-02T12:47:14.316Z,101350.91
2022-11-02T12:49:55.579Z,101340.88
2022-11-02T12:52:44.019Z,101339.41
2022-11-02T12:55:21.416Z,101345.19
2022-11-02T12:57:50.534Z,101336.78
2022-11-02T13:00:24.215Z,101329.09
2022-11-02T13:02:59.849Z,101332.41
2022-11-02T13:05:42.659Z,101331.38
2022-11-02T13:08:15.567Z,101343.13
2022-11-02T13:10:50.773Z,101327.13
2022-11-02T13:13:31.208Z,101328.50
2022-11-02T13:16:05.851Z,101346.38
2022-11-02T13:18:39.899Z,101343.78
2022-11-02T13:21:09.116Z,101343.06
2022-11-02T13:23:44.722Z,101354.38
2022-11-02T13:26:30.589Z,101352.31
2022-11-02T13:29:07.420Z,101361.28
2022-11-02T13:31:47.349Z,101360.63
2022-11-02T13:34:20.289Z,101353.16
2022-11-02T13:36:48.211Z,101364.09
2022-11-02T13:39:21.586Z,101351.19
2022-11-02T13:42:25.630Z,101362.94
2022-11-02T13:45:26.775Z,101361.31
2022-11-02T13:48:32.905Z,101361.13
2022-11-02T13:51:06.261Z,101361.00
2022-11-02T13:53:41.943Z,101370.53
2022-11-02T13:56:25.737Z,101357.88
2022-11-02T13:59:01.458Z,101355.34
2022-11-02T14:01:39.715Z,101366.19
2022-11-02T14:04:11.973Z,101373.53
2022-11-02T14:06:51.321Z,101360.31
2022-11-02T14:09:27.889Z,101353.16
2022-11-02T14:12:29.332Z,101365.81
2022-11-02T14:15:44.739Z,101364.34
2022-11-02T14:18:15.089Z,101362.53
2022-11-02T14:20:48.417Z,101354.22
2022-11-02T14:23:39.084Z,101362.84
2022-11-02T14:26:56.831Z,101368.69
2022-11-02T14:29:39.954Z,101369.41
2022-11-02T14:32:16.561Z,101377.56
2022-11-02T14:35:00.591Z,101375.69
2022-11-02T14:37:47.357Z,101372.44
2022-11-02T14:40:28.962Z,101380.16
2022-11-02T14:43:37.256Z,101383.03
2022-11-02T14:49:19.591Z,101381.66
2022-11-02T14:52:03.923Z,101382.50
2022-11-02T14:54:39.486Z,101378.34
2022-11-02T14:57:17.228Z,101381.56
2022-11-02T14:59:51.612Z,101387.44
2022-11-02T15:02:24.975Z,101380.94
2022-11-02T15:04:59.138Z,101371.91
2022-11-02T15:10:39.442Z,101365.03
2022-11-02T15:13:49.253Z,101366.72
2022-11-02T15:16:24.568Z,101365.09
2022-11-02T15:18:53.618Z,101361.09
2022-11-02T15:21:28.472Z,101364.97
2022-11-02T15:24:21.248Z,101356.66
2022-11-02T15:26:53.394Z,101356.09
2022-11-02T15:29:42.299Z,101367.09
2022-11-02T15:32:22.280Z,101376.63
2022-11-02T15:34:52.602Z,101374.41
2022-11-02T15:37:23.665Z,101374.59
2022-11-02T15:39:53.177Z,101369.97
2022-11-02T15:42:40.429Z,101372.06
2022-11-02T15:46:00.352Z,101381.56
2022-11-02T15:48:40.267Z,101377.25
2022-11-02T15:51:17.109Z,101361.50
2022-11-02T15:54:03.419Z,101387.81
2022-11-02T15:56:52.138Z,101390.03
2022-11-02T16:00:01.971Z,101394.81
2022-11-02T16:02:41.061Z,101392.72
2022-11-02T16:05:20.657Z,101392.25
2022-11-02T16:08:20.755Z,101385.88
2022-11-02T16:10:48.595Z,101387.38
2022-11-02T16:13:22.928Z,101376.09
2022-11-02T16:15:58.653Z,101385.56
2022-11-02T16:18:29.893Z,101373.22
2022-11-02T16:21:02.153Z,101387.94
2022-11-02T16:23:43.552Z,101392.38
2022-11-02T16:26:19.723Z,101399.66
2022-11-02T16:28:50.925Z,101398.03
2022-11-02T16:31:21.481Z,101389.09
2022-11-02T16:33:52.963Z,101399.50
2022-11-02T16:36:25.804Z,101398.63
2022-11-02T16:38:59.515Z,101390.00
2022-11-02T16:41:29.603Z,101385.97
2022-11-02T16:43:59.883Z,101390.28
2022-11-02T16:46:45.277Z,101392.63
2022-11-02T16:49:18.474Z,101388.63
2022-11-02T16:51:54.062Z,101374.94
2022-11-02T16:54:40.698Z,101382.81
2022-11-02T16:57:16.530Z,101382.50
2022-11-02T16:59:56.694Z,101398.25
2022-11-02T17:02:35.282Z,101394.97
2022-11-02T17:05:07.246Z,101392.16
2022-11-02T17:07:39.841Z,101392.88
2022-11-02T17:10:09.113Z,101394.19
2022-11-02T17:12:41.313Z,101391.38
2022-11-02T17:15:17.329Z,101400.09
2022-11-02T17:17:45.244Z,101405.75
2022-11-02T17:20:21.730Z,101406.16
2022-11-02T17:22:52.462Z,101365.66
2022-11-02T17:25:22.671Z,101404.06
2022-11-02T17:27:51.754Z,101407.16
2022-11-02T17:30:42.765Z,101409.84
2022-11-02T17:33:18.261Z,101413.88
2022-11-02T17:35:49.413Z,101407.38
2022-11-02T17:38:19.551Z,101408.53
2022-11-02T17:40:52.034Z,101400.50
2022-11-02T17:43:27.010Z,101408.34
2022-11-02T17:45:57.069Z,101415.06
2022-11-02T17:48:28.488Z,101410.59
2022-11-02T17:50:59.774Z,101383.44
2022-11-02T17:53:32.588Z,101410.53
2022-11-02T17:56:00.401Z,101410.22
2022-11-02T17:58:29.881Z,101410.75
2022-11-02T18:01:02.354Z,101406.31
2022-11-02T18:03:31.500Z,101406.91
2022-11-02T18:06:02.214Z,101410.72
2022-11-02T18:08:52.031Z,101417.81
2022-11-02T18:11:26.484Z,101418.81
2022-11-02T18:13:57.187Z,101420.16
2022-11-02T18:16:32.100Z,101413.88
2022-11-02T18:18:59.882Z,101418.03
2022-11-02T18:21:29.125Z,101411.81
2022-11-02T18:23:57.065Z,101411.47
2022-11-02T18:26:24.893Z,101410.25
2022-11-02T18:28:52.641Z,101407.59
2022-11-02T18:31:23.524Z,101411.56
2022-11-02T18:33:52.819Z,101403.53
2022-11-02T18:36:20.688Z,101408.16
2022-11-02T18:38:49.806Z,101408.16
2022-11-02T18:41:30.953Z,101411.22
2022-11-02T18:44:05.542Z,101399.22
2022-11-02T18:46:35.321Z,101397.44
2022-11-02T18:49:05.866Z,101396.72
2022-11-02T18:51:34.023Z,101372.47
2022-11-02T18:54:06.092Z,101395.31
2022-11-02T18:56:33.923Z,101388.63
2022-11-02T18:59:04.261Z,101388.13
2022-11-02T19:01:35.078Z,101392.25
2022-11-02T19:04:03.158Z,101396.09
2022-11-02T19:06:50.458Z,101395.19
2022-11-02T19:09:23.136Z,101385.13
2022-11-02T19:11:54.645Z,101388.25
2022-11-02T19:14:26.792Z,101390.56
2022-11-02T19:16:54.701Z,101388.06
2022-11-02T19:19:22.785Z,101392.22
2022-11-02T19:21:50.694Z,101379.53
2022-11-02T19:24:20.989Z,101357.16
2022-11-02T19:26:51.647Z,101387.59
2022-11-02T19:29:19.611Z,101378.69
2022-11-02T19:31:47.572Z,101383.38
2022-11-02T19:34:15.569Z,101378.94
2022-11-02T19:36:45.942Z,101375.00
2022-11-02T19:39:13.705Z,101388.19
2022-11-02T19:41:42.810Z,101374.38
2022-11-02T19:44:13.398Z,101370.97
2022-11-02T19:46:47.433Z,101370.81
2022-11-02T19:49:19.539Z,101366.50
2022-11-02T19:51:47.479Z,101364.00
2022-11-02T19:54:15.641Z,101354.81
2022-11-02T19:56:47.707Z,101353.22
2022-11-02T19:59:15.505Z,101363.44
2022-11-02T20:01:43.705Z,101364.63
2022-11-02T20:04:11.966Z,101359.91
2022-11-02T20:06:41.980Z,101358.16
2022-11-02T20:09:15.529Z,101353.69
2022-11-02T20:11:44.844Z,101354.06
2022-11-02T20:14:16.858Z,101354.81
2022-11-02T20:16:58.705Z,101361.31
2022-11-02T20:19:32.287Z,101350.75
2022-11-02T20:22:09.418Z,101360.41
2022-11-02T20:24:38.030Z,101354.31
2022-11-02T20:27:07.036Z,101368.53
2022-11-02T20:29:46.299Z,101355.06
2022-11-02T20:32:21.447Z,101352.38
2022-11-02T20:34:49.203Z,101352.06
2022-11-02T20:37:16.905Z,101354.97
2022-11-02T20:39:44.592Z,101354.66
2022-11-02T20:42:12.503Z,101338.91
2022-11-02T20:44:49.108Z,101349.94
2022-11-02T20:47:16.931Z,101344.75
2022-11-02T20:49:50.672Z,101334.38
2022-11-02T20:52:21.816Z,101333.31
2022-11-02T20:54:49.705Z,101340.75
2022-11-02T20:57:17.407Z,101338.59
2022-11-02T20:59:46.645Z,101336.41
2022-11-02T21:02:14.503Z,101334.53
2022-11-02T21:04:42.470Z,101329.09
2022-11-02T21:07:10.330Z,101334.44
2022-11-02T21:09:38.075Z,101326.91
2022-11-02T21:12:23.726Z,101323.97
2022-11-02T21:14:53.252Z,101325.19
2022-11-02T21:17:21.688Z,101321.22
2022-11-02T21:19:58.372Z,101313.41
2022-11-02T21:22:35.860Z,101313.00
2022-11-02T21:25:03.900Z,101323.38
2022-11-02T21:27:31.739Z,101315.09
2022-11-02T21:30:04.108Z,101310.78
2022-11-02T21:32:38.189Z,101312.03
2022-11-02T21:35:07.499Z,101322.25
2022-11-02T21:37:35.630Z,101313.50
2022-11-02T21:40:05.100Z,101311.28
2022-11-02T21:42:33.895Z,101296.03
2022-11-02T21:45:03.571Z,101304.88
2022-11-02T21:47:34.320Z,101305.75
2022-11-02T21:50:03.233Z,101291.50
2022-11-02T21:52:44.093Z,101307.66
2022-11-02T21:55:13.241Z,101309.84
2022-11-02T21:57:47.523Z,101292.31
2022-11-02T22:00:43.990Z,101307.97
2022-11-02T22:03:11.942Z,101272.16
2022-11-02T22:06:01.831Z,101298.91
2022-11-02T22:08:41.817Z,101296.47
2022-11-02T22:11:11.910Z,101304.84
2022-11-02T22:13:41.558Z,101297.91
2022-11-02T22:16:14.748Z,101293.34
2022-11-02T22:18:47.810Z,101293.78
2022-11-02T22:21:19.240Z,101280.03
2022-11-02T22:23:48.529Z,101282.53
2022-11-02T22:26:19.899Z,101281.66
2022-11-02T22:28:48.847Z,101286.91
2022-11-02T22:31:20.671Z,101263.47
2022-11-02T22:33:50.856Z,101270.16
2022-11-02T22:36:23.857Z,101281.81
2022-11-02T22:38:56.082Z,101277.34
2022-11-02T22:41:29.334Z,101275.16
2022-11-02T22:44:01.328Z,101269.41
2022-11-02T22:46:36.274Z,101261.13
2022-11-02T22:49:06.953Z,101248.63
2022-11-02T22:51:37.272Z,101256.44
2022-11-02T22:54:07.570Z,101253.91
2022-11-02T22:56:36.508Z,101246.78
2022-11-02T22:59:06.635Z,101244.56
2022-11-02T23:01:36.985Z,101236.16
2022-11-02T23:04:06.259Z,101223.84
2022-11-02T23:06:34.892Z,101219.63
2022-11-02T23:09:03.415Z,101229.97
2022-11-02T23:11:35.089Z,101229.97
2022-11-02T23:14:05.684Z,101226.56
2022-11-02T23:16:36.549Z,101233.41
2022-11-02T23:19:30.502Z,101227.97
2022-11-02T23:22:18.419Z,101224.72
2022-11-02T23:25:06.299Z,101224.91
2022-11-02T23:27:56.270Z,101221.81
2022-11-02T23:30:42.496Z,101210.03
2022-11-02T23:33:12.043Z,101204.78
2022-11-02T23:36:06.755Z,101213.84
2022-11-02T23:38:48.717Z,101206.88
2022-11-02T23:41:22.771Z,101207.47
2022-11-02T23:43:50.701Z,101211.44
2022-11-02T23:46:18.991Z,101196.00
2022-11-02T23:48:51.141Z,101205.19
2022-11-02T23:51:39.547Z,101194.09
2022-11-02T23:54:25.282Z,101202.34
2022-11-02T23:56:53.126Z,101197.00
2022-11-02T23:59:22.960Z,101193.59
